Bennington, VT

12:50 AM EDT on September 28, 2016 (GMT -0400)
| | Change Station

Elev -9999 ft 0.00 °N, 0.00 °E | Updated

Partly Cloudy
Partly Cloudy
49 °F
Feels Like 49 °F
N
2
Wind Variable Wind from NE
Gusts mph

Today
High -- | Low -- °F
--% Chance of Precip.
Yesterday
High -- | Low -- °F
Precip. -- in
Pressure 30.04 in
Visibility 10.0 miles
Clouds Few 600 ft
Dew Point 49 °F
Humidity 99%
Rainfall --
Snow Depth Not available.
6:46 AM 6:37 PM
Waning Crescent, 8% visible
METAR KAQW 280352Z AUTO 00000KT 10SM FEW006 09/08 A3003 RMK AO2 SLP171 T00890078
Pressure 30.04 in
Visibility 10.0 miles
Clouds Few 600 ft
Dew Point 49 °F
Humidity 99%
Rainfall --
Snow Depth Not available.
6:46 AM 6:37 PM
Waning Crescent, 8% visible
METAR KAQW 280352Z AUTO 00000KT 10SM FEW006 09/08 A3003 RMK AO2 SLP171 T00890078

10-Day Weather Forecast

Almanac

Astronomy

Sep. 28, 2016 Rise Set
Actual Time
Civil Twilight
Nautical Twilight
Astronomical Twilight
Moon
Length of Visible Light
Length of Day
Tomorrow will be .
, % of the Moon is Illuminated

Today's Extremes

State Highs State Lows

Community

WunderPhotos

Upload Photos

1,942,209 photos uploaded!

WunderBlog® & News

Nearby

Air Quality

  Air Quality AQ Index Pollutant
Not available.

Snow Depth

Station Depth Elevation

Earthquake Activity

City Distance Mag. Time & Date
Minimum magnitude displayed is 2.5.

Coastal Water Temperatures

Place Temperature

Stations

Nearby Weather Stations

Station Location Temp. Windchill Dew Point Humidity Wind Precip. Elev Updated Type
                   

Watches & Warnings

There are currently no watches in effect.